sensor_id;sensor_type;location;lat;lon;timestamp;temperature;humidity
34279;DHT22;20538;51.528;9.942;2023-08-21T00:01:46;22.10;99.90
34279;DHT22;20538;51.528;9.942;2023-08-21T00:04:11;22.00;99.90
34279;DHT22;20538;51.528;9.942;2023-08-21T00:06:37;22.10;99.90
34279;DHT22;20538;51.528;9.942;2023-08-21T00:09:03;22.10;99.90
34279;DHT22;20538;51.528;9.942;2023-08-21T00:11:29;22.10;99.90
34279;DHT22;20538;51.528;9.942;2023-08-21T00:13:54;22.10;99.90
34279;DHT22;20538;51.528;9.942;2023-08-21T00:16:20;22.10;99.90
34279;DHT22;20538;51.528;9.942;2023-08-21T00:18:46;22.10;99.90
34279;DHT22;20538;51.528;9.942;2023-08-21T00:21:11;22.10;99.90
34279;DHT22;20538;51.528;9.942;2023-08-21T00:23:37;22.10;99.90
34279;DHT22;20538;51.528;9.942;2023-08-21T00:26:03;22.10;99.90
34279;DHT22;20538;51.528;9.942;2023-08-21T00:28:29;22.10;99.90
34279;DHT22;20538;51.528;9.942;2023-08-21T00:31:05;22.10;99.90
34279;DHT22;20538;51.528;9.942;2023-08-21T00:33:32;22.00;99.90
34279;DHT22;20538;51.528;9.942;2023-08-21T00:35:58;22.00;99.90
34279;DHT22;20538;51.528;9.942;2023-08-21T00:38:24;22.00;99.90
34279;DHT22;20538;51.528;9.942;2023-08-21T00:40:50;22.00;99.90
34279;DHT22;20538;51.528;9.942;2023-08-21T00:43:16;22.00;99.90
34279;DHT22;20538;51.528;9.942;2023-08-21T00:45:43;22.00;99.90
34279;DHT22;20538;51.528;9.942;2023-08-21T00:48:10;22.00;99.90
34279;DHT22;20538;51.528;9.942;2023-08-21T00:50:37;22.00;99.90
34279;DHT22;20538;51.528;9.942;2023-08-21T00:53:03;21.90;99.90
34279;DHT22;20538;51.528;9.942;2023-08-21T00:55:30;21.90;99.90
34279;DHT22;20538;51.528;9.942;2023-08-21T00:57:57;21.80;99.90
34279;DHT22;20538;51.528;9.942;2023-08-21T01:00:24;21.80;99.90
34279;DHT22;20538;51.528;9.942;2023-08-21T01:02:50;21.80;99.90
34279;DHT22;20538;51.528;9.942;2023-08-21T01:05:18;21.70;99.90
34279;DHT22;20538;51.528;9.942;2023-08-21T01:08:00;21.60;99.90
34279;DHT22;20538;51.528;9.942;2023-08-21T01:15:58;21.60;99.90
34279;DHT22;20538;51.528;9.942;2023-08-21T01:18:26;21.50;99.90
34279;DHT22;20538;51.528;9.942;2023-08-21T01:20:54;21.50;99.90
34279;DHT22;20538;51.528;9.942;2023-08-21T01:23:34;21.50;99.90
34279;DHT22;20538;51.528;9.942;2023-08-21T01:26:00;21.50;99.90
34279;DHT22;20538;51.528;9.942;2023-08-21T01:28:26;21.50;99.90
34279;DHT22;20538;51.528;9.942;2023-08-21T01:31:07;21.50;99.90
34279;DHT22;20538;51.528;9.942;2023-08-21T01:33:36;21.40;99.90
34279;DHT22;20538;51.528;9.942;2023-08-21T01:36:03;21.30;99.90
34279;DHT22;20538;51.528;9.942;2023-08-21T01:38:34;21.30;99.90
34279;DHT22;20538;51.528;9.942;2023-08-21T01:41:01;21.30;99.90
34279;DHT22;20538;51.528;9.942;2023-08-21T01:43:27;21.30;99.90
34279;DHT22;20538;51.528;9.942;2023-08-21T01:45:53;21.30;99.90
34279;DHT22;20538;51.528;9.942;2023-08-21T01:48:19;21.30;99.90
34279;DHT22;20538;51.528;9.942;2023-08-21T01:50:44;21.30;99.90
34279;DHT22;20538;51.528;9.942;2023-08-21T01:53:10;21.30;99.90
34279;DHT22;20538;51.528;9.942;2023-08-21T01:55:35;21.30;99.90
34279;DHT22;20538;51.528;9.942;2023-08-21T01:58:01;21.20;99.90
34279;DHT22;20538;51.528;9.942;2023-08-21T02:00:27;21.30;99.90
34279;DHT22;20538;51.528;9.942;2023-08-21T02:02:52;21.20;99.90
34279;DHT22;20538;51.528;9.942;2023-08-21T02:05:18;21.20;99.90
34279;DHT22;20538;51.528;9.942;2023-08-21T02:07:44;21.30;99.90
34279;DHT22;20538;51.528;9.942;2023-08-21T02:10:10;21.20;99.90
34279;DHT22;20538;51.528;9.942;2023-08-21T02:12:35;21.20;99.90
34279;DHT22;20538;51.528;9.942;2023-08-21T02:15:01;21.20;99.90
34279;DHT22;20538;51.528;9.942;2023-08-21T02:17:26;21.10;99.90
34279;DHT22;20538;51.528;9.942;2023-08-21T02:19:52;21.00;99.90
34279;DHT22;20538;51.528;9.942;2023-08-21T02:22:18;21.00;99.90
34279;DHT22;20538;51.528;9.942;2023-08-21T02:24:43;20.90;99.90
34279;DHT22;20538;51.528;9.942;2023-08-21T02:27:09;21.00;99.90
34279;DHT22;20538;51.528;9.942;2023-08-21T02:29:35;21.00;99.90
34279;DHT22;20538;51.528;9.942;2023-08-21T02:32:00;21.00;99.90
34279;DHT22;20538;51.528;9.942;2023-08-21T02:34:26;21.00;99.90
34279;DHT22;20538;51.528;9.942;2023-08-21T02:36:52;21.00;99.90
34279;DHT22;20538;51.528;9.942;2023-08-21T02:39:18;21.00;99.90
34279;DHT22;20538;51.528;9.942;2023-08-21T02:41:43;21.00;99.90
34279;DHT22;20538;51.528;9.942;2023-08-21T02:44:09;20.90;99.90
34279;DHT22;20538;51.528;9.942;2023-08-21T02:46:34;21.00;99.90
34279;DHT22;20538;51.528;9.942;2023-08-21T02:49:02;20.80;99.90
34279;DHT22;20538;51.528;9.942;2023-08-21T02:51:27;20.80;99.90
34279;DHT22;20538;51.528;9.942;2023-08-21T02:53:53;20.80;99.90
34279;DHT22;20538;51.528;9.942;2023-08-21T02:56:19;20.80;99.90
34279;DHT22;20538;51.528;9.942;2023-08-21T02:58:45;20.70;99.90
34279;DHT22;20538;51.528;9.942;2023-08-21T03:01:10;20.70;99.90
34279;DHT22;20538;51.528;9.942;2023-08-21T03:03:37;20.70;99.90
34279;DHT22;20538;51.528;9.942;2023-08-21T03:06:03;20.50;99.90
34279;DHT22;20538;51.528;9.942;2023-08-21T03:08:28;20.50;99.90
34279;DHT22;20538;51.528;9.942;2023-08-21T03:10:54;20.50;99.90
34279;DHT22;20538;51.528;9.942;2023-08-21T03:13:19;20.40;99.90
34279;DHT22;20538;51.528;9.942;2023-08-21T03:15:45;20.30;99.90
34279;DHT22;20538;51.528;9.942;2023-08-21T03:18:10;20.30;99.90
34279;DHT22;20538;51.528;9.942;2023-08-21T03:20:36;20.30;99.90
34279;DHT22;20538;51.528;9.942;2023-08-21T03:23:02;20.30;99.90
34279;DHT22;20538;51.528;9.942;2023-08-21T03:25:28;20.20;99.90
34279;DHT22;20538;51.528;9.942;2023-08-21T03:27:53;20.20;99.90
34279;DHT22;20538;51.528;9.942;2023-08-21T03:30:19;20.20;99.90
34279;DHT22;20538;51.528;9.942;2023-08-21T03:32:45;20.20;99.90
34279;DHT22;20538;51.528;9.942;2023-08-21T03:35:11;20.20;99.90
34279;DHT22;20538;51.528;9.942;2023-08-21T03:37:36;20.30;99.90
34279;DHT22;20538;51.528;9.942;2023-08-21T03:40:03;20.10;99.90
34279;DHT22;20538;51.528;9.942;2023-08-21T03:42:29;20.10;99.90
34279;DHT22;20538;51.528;9.942;2023-08-21T03:44:54;20.10;99.90
34279;DHT22;20538;51.528;9.942;2023-08-21T03:47:20;20.10;99.90
34279;DHT22;20538;51.528;9.942;2023-08-21T03:49:46;20.00;99.90
34279;DHT22;20538;51.528;9.942;2023-08-21T03:52:13;19.80;99.90
34279;DHT22;20538;51.528;9.942;2023-08-21T03:54:39;19.80;99.90
34279;DHT22;20538;51.528;9.942;2023-08-21T03:57:05;19.80;99.90
34279;DHT22;20538;51.528;9.942;2023-08-21T03:59:30;19.70;99.90
34279;DHT22;20538;51.528;9.942;2023-08-21T04:01:56;19.70;99.90
34279;DHT22;20538;51.528;9.942;2023-08-21T04:04:22;19.70;99.90
34279;DHT22;20538;51.528;9.942;2023-08-21T04:06:47;19.70;99.90
34279;DHT22;20538;51.528;9.942;2023-08-21T04:09:13;19.60;99.90
34279;DHT22;20538;51.528;9.942;2023-08-21T04:11:38;19.60;99.90
34279;DHT22;20538;51.528;9.942;2023-08-21T04:14:04;19.60;99.90
34279;DHT22;20538;51.528;9.942;2023-08-21T04:16:30;19.60;99.90
34279;DHT22;20538;51.528;9.942;2023-08-21T04:18:56;19.60;99.90
34279;DHT22;20538;51.528;9.942;2023-08-21T04:21:22;19.60;99.90
34279;DHT22;20538;51.528;9.942;2023-08-21T04:23:48;19.50;99.90
34279;DHT22;20538;51.528;9.942;2023-08-21T04:26:13;19.50;99.90
34279;DHT22;20538;51.528;9.942;2023-08-21T04:28:39;19.40;99.90
34279;DHT22;20538;51.528;9.942;2023-08-21T04:31:06;19.40;99.90
34279;DHT22;20538;51.528;9.942;2023-08-21T04:33:32;19.40;99.90
34279;DHT22;20538;51.528;9.942;2023-08-21T04:35:58;19.40;99.90
34279;DHT22;20538;51.528;9.942;2023-08-21T04:38:24;19.40;99.90
34279;DHT22;20538;51.528;9.942;2023-08-21T04:40:49;19.30;99.90
34279;DHT22;20538;51.528;9.942;2023-08-21T04:43:15;19.30;99.90
34279;DHT22;20538;51.528;9.942;2023-08-21T04:45:51;19.30;99.90
34279;DHT22;20538;51.528;9.942;2023-08-21T04:48:18;19.20;99.90
34279;DHT22;20538;51.528;9.942;2023-08-21T04:50:45;19.10;99.90
34279;DHT22;20538;51.528;9.942;2023-08-21T04:53:11;19.20;99.90
34279;DHT22;20538;51.528;9.942;2023-08-21T04:55:36;19.20;99.90
34279;DHT22;20538;51.528;9.942;2023-08-21T04:58:02;19.20;99.90
34279;DHT22;20538;51.528;9.942;2023-08-21T05:00:29;19.30;99.90
34279;DHT22;20538;51.528;9.942;2023-08-21T05:02:54;19.30;99.90
34279;DHT22;20538;51.528;9.942;2023-08-21T05:05:20;19.40;99.90
34279;DHT22;20538;51.528;9.942;2023-08-21T05:07:46;19.40;99.90
34279;DHT22;20538;51.528;9.942;2023-08-21T05:10:11;19.50;99.90
34279;DHT22;20538;51.528;9.942;2023-08-21T05:12:37;19.60;99.90
34279;DHT22;20538;51.528;9.942;2023-08-21T05:15:03;19.60;99.90
34279;DHT22;20538;51.528;9.942;2023-08-21T05:17:29;19.70;99.90
34279;DHT22;20538;51.528;9.942;2023-08-21T05:19:56;19.70;99.90
34279;DHT22;20538;51.528;9.942;2023-08-21T05:22:22;19.70;99.90
34279;DHT22;20538;51.528;9.942;2023-08-21T05:24:47;19.70;99.90
34279;DHT22;20538;51.528;9.942;2023-08-21T05:27:13;19.70;99.90
34279;DHT22;20538;51.528;9.942;2023-08-21T05:29:39;19.80;99.90
34279;DHT22;20538;51.528;9.942;2023-08-21T05:32:05;19.80;99.90
34279;DHT22;20538;51.528;9.942;2023-08-21T05:34:31;19.80;99.90
34279;DHT22;20538;51.528;9.942;2023-08-21T05:36:57;19.80;99.90
34279;DHT22;20538;51.528;9.942;2023-08-21T05:39:22;19.80;99.90
34279;DHT22;20538;51.528;9.942;2023-08-21T05:41:48;19.90;99.90
34279;DHT22;20538;51.528;9.942;2023-08-21T05:44:14;20.00;99.90
34279;DHT22;20538;51.528;9.942;2023-08-21T05:46:39;20.00;99.90
34279;DHT22;20538;51.528;9.942;2023-08-21T05:49:05;20.10;99.90
34279;DHT22;20538;51.528;9.942;2023-08-21T05:51:31;20.10;99.90
34279;DHT22;20538;51.528;9.942;2023-08-21T05:53:56;20.20;99.90
34279;DHT22;20538;51.528;9.942;2023-08-21T05:56:22;20.20;99.90
34279;DHT22;20538;51.528;9.942;2023-08-21T05:58:49;20.30;99.90
34279;DHT22;20538;51.528;9.942;2023-08-21T06:01:14;20.40;99.90
34279;DHT22;20538;51.528;9.942;2023-08-21T06:03:40;20.50;99.90
34279;DHT22;20538;51.528;9.942;2023-08-21T06:06:06;20.50;99.90
34279;DHT22;20538;51.528;9.942;2023-08-21T06:08:31;20.60;99.90
34279;DHT22;20538;51.528;9.942;2023-08-21T06:10:57;20.70;99.90
34279;DHT22;20538;51.528;9.942;2023-08-21T06:13:23;20.70;99.90
34279;DHT22;20538;51.528;9.942;2023-08-21T06:15:48;20.70;99.90
34279;DHT22;20538;51.528;9.942;2023-08-21T06:18:14;20.80;99.90
34279;DHT22;20538;51.528;9.942;2023-08-21T06:20:43;20.80;99.90
34279;DHT22;20538;51.528;9.942;2023-08-21T06:23:10;20.80;99.90
34279;DHT22;20538;51.528;9.942;2023-08-21T06:25:36;20.80;99.90
34279;DHT22;20538;51.528;9.942;2023-08-21T06:28:02;20.80;99.90
34279;DHT22;20538;51.528;9.942;2023-08-21T06:30:28;20.80;99.90
34279;DHT22;20538;51.528;9.942;2023-08-21T06:32:54;20.80;99.90
34279;DHT22;20538;51.528;9.942;2023-08-21T06:35:20;20.90;99.90
34279;DHT22;20538;51.528;9.942;2023-08-21T06:37:46;21.00;99.90
34279;DHT22;20538;51.528;9.942;2023-08-21T06:40:11;21.00;99.90
34279;DHT22;20538;51.528;9.942;2023-08-21T06:42:37;21.20;99.90
34279;DHT22;20538;51.528;9.942;2023-08-21T06:45:04;21.30;99.90
34279;DHT22;20538;51.528;9.942;2023-08-21T06:47:30;21.40;99.90
34279;DHT22;20538;51.528;9.942;2023-08-21T06:49:56;21.30;99.90
34279;DHT22;20538;51.528;9.942;2023-08-21T06:52:22;21.50;99.90
34279;DHT22;20538;51.528;9.942;2023-08-21T06:54:47;21.60;99.90
34279;DHT22;20538;51.528;9.942;2023-08-21T06:57:13;21.70;99.90
34279;DHT22;20538;51.528;9.942;2023-08-21T06:59:39;21.60;99.90
34279;DHT22;20538;51.528;9.942;2023-08-21T07:02:05;21.70;99.90
34279;DHT22;20538;51.528;9.942;2023-08-21T07:04:31;21.70;99.90
34279;DHT22;20538;51.528;9.942;2023-08-21T07:06:58;21.60;99.90
34279;DHT22;20538;51.528;9.942;2023-08-21T07:09:24;21.80;99.90
34279;DHT22;20538;51.528;9.942;2023-08-21T07:11:49;21.90;99.90
34279;DHT22;20538;51.528;9.942;2023-08-21T07:14:15;22.10;99.90
34279;DHT22;20538;51.528;9.942;2023-08-21T07:16:42;21.80;99.90
34279;DHT22;20538;51.528;9.942;2023-08-21T07:19:08;22.10;99.90
34279;DHT22;20538;51.528;9.942;2023-08-21T07:21:33;22.10;99.90
34279;DHT22;20538;51.528;9.942;2023-08-21T07:24:02;22.30;99.90
34279;DHT22;20538;51.528;9.942;2023-08-21T07:26:28;22.50;99.90
34279;DHT22;20538;51.528;9.942;2023-08-21T07:28:54;22.30;99.90
34279;DHT22;20538;51.528;9.942;2023-08-21T07:31:20;22.40;99.90
34279;DHT22;20538;51.528;9.942;2023-08-21T07:33:46;22.40;99.90
34279;DHT22;20538;51.528;9.942;2023-08-21T07:36:11;22.60;99.90
34279;DHT22;20538;51.528;9.942;2023-08-21T07:38:44;22.80;99.90
34279;DHT22;20538;51.528;9.942;2023-08-21T07:41:11;22.80;99.90
34279;DHT22;20538;51.528;9.942;2023-08-21T07:43:41;22.70;99.90
34279;DHT22;20538;51.528;9.942;2023-08-21T07:46:08;23.10;99.90
34279;DHT22;20538;51.528;9.942;2023-08-21T07:48:39;23.00;99.90
34279;DHT22;20538;51.528;9.942;2023-08-21T07:51:05;23.00;99.90
34279;DHT22;20538;51.528;9.942;2023-08-21T07:53:30;23.10;99.90
34279;DHT22;20538;51.528;9.942;2023-08-21T07:56:02;23.40;99.90
34279;DHT22;20538;51.528;9.942;2023-08-21T07:58:29;23.40;99.90
34279;DHT22;20538;51.528;9.942;2023-08-21T08:00:54;23.50;99.90
34279;DHT22;20538;51.528;9.942;2023-08-21T08:03:21;23.50;99.90
34279;DHT22;20538;51.528;9.942;2023-08-21T08:05:46;23.70;99.90
34279;DHT22;20538;51.528;9.942;2023-08-21T08:08:12;23.90;99.90
34279;DHT22;20538;51.528;9.942;2023-08-21T08:10:40;23.60;99.90
34279;DHT22;20538;51.528;9.942;2023-08-21T08:13:07;23.60;99.90
34279;DHT22;20538;51.528;9.942;2023-08-21T08:15:33;23.60;99.90
34279;DHT22;20538;51.528;9.942;2023-08-21T08:18:00;23.70;99.90
34279;DHT22;20538;51.528;9.942;2023-08-21T08:20:26;24.10;99.90
34279;DHT22;20538;51.528;9.942;2023-08-21T08:22:52;24.30;99.90
34279;DHT22;20538;51.528;9.942;2023-08-21T08:25:17;24.20;99.90
34279;DHT22;20538;51.528;9.942;2023-08-21T08:27:43;24.20;99.90
34279;DHT22;20538;51.528;9.942;2023-08-21T08:30:09;24.50;99.90
34279;DHT22;20538;51.528;9.942;2023-08-21T08:32:35;24.80;99.90
34279;DHT22;20538;51.528;9.942;2023-08-21T08:35:01;24.90;99.20
34279;DHT22;20538;51.528;9.942;2023-08-21T08:37:27;25.00;99.40
34279;DHT22;20538;51.528;9.942;2023-08-21T08:39:53;24.90;99.90
34279;DHT22;20538;51.528;9.942;2023-08-21T08:42:18;24.20;98.90
34279;DHT22;20538;51.528;9.942;2023-08-21T08:44:44;24.80;99.90
34279;DHT22;20538;51.528;9.942;2023-08-21T08:47:11;25.00;98.30
34279;DHT22;20538;51.528;9.942;2023-08-21T08:49:39;25.10;98.50
34279;DHT22;20538;51.528;9.942;2023-08-21T08:52:05;24.90;98.90
34279;DHT22;20538;51.528;9.942;2023-08-21T08:54:31;25.20;99.10
34279;DHT22;20538;51.528;9.942;2023-08-21T08:56:57;25.10;98.80
34279;DHT22;20538;51.528;9.942;2023-08-21T08:59:23;25.30;98.70
34279;DHT22;20538;51.528;9.942;2023-08-21T09:01:49;25.40;98.10
34279;DHT22;20538;51.528;9.942;2023-08-21T09:04:15;25.60;98.40
34279;DHT22;20538;51.528;9.942;2023-08-21T09:06:41;25.60;98.00
34279;DHT22;20538;51.528;9.942;2023-08-21T09:09:07;25.40;98.20
34279;DHT22;20538;51.528;9.942;2023-08-21T09:11:33;25.10;98.10
34279;DHT22;20538;51.528;9.942;2023-08-21T09:14:00;24.50;98.20
34279;DHT22;20538;51.528;9.942;2023-08-21T09:16:26;24.70;98.90
34279;DHT22;20538;51.528;9.942;2023-08-21T09:18:56;24.90;98.20
34279;DHT22;20538;51.528;9.942;2023-08-21T09:21:23;24.50;98.40
34279;DHT22;20538;51.528;9.942;2023-08-21T09:23:57;24.30;98.00
34279;DHT22;20538;51.528;9.942;2023-08-21T09:26:23;24.80;98.30
34279;DHT22;20538;51.528;9.942;2023-08-21T09:28:50;24.90;98.20
34279;DHT22;20538;51.528;9.942;2023-08-21T09:31:23;24.80;98.10
34279;DHT22;20538;51.528;9.942;2023-08-21T09:33:56;24.90;98.30
34279;DHT22;20538;51.528;9.942;2023-08-21T09:36:22;24.80;98.10
34279;DHT22;20538;51.528;9.942;2023-08-21T09:38:48;25.00;98.00
34279;DHT22;20538;51.528;9.942;2023-08-21T09:41:13;25.20;97.60
34279;DHT22;20538;51.528;9.942;2023-08-21T09:43:42;25.00;98.70
34279;DHT22;20538;51.528;9.942;2023-08-21T09:46:08;25.00;99.40
34279;DHT22;20538;51.528;9.942;2023-08-21T09:48:34;25.40;98.30
34279;DHT22;20538;51.528;9.942;2023-08-21T09:51:00;25.40;98.40
34279;DHT22;20538;51.528;9.942;2023-08-21T09:53:30;25.30;98.20
34279;DHT22;20538;51.528;9.942;2023-08-21T09:55:56;25.00;98.00
34279;DHT22;20538;51.528;9.942;2023-08-21T09:58:22;25.50;98.70
34279;DHT22;20538;51.528;9.942;2023-08-21T10:00:49;25.70;97.90
34279;DHT22;20538;51.528;9.942;2023-08-21T10:03:18;25.80;97.90
34279;DHT22;20538;51.528;9.942;2023-08-21T10:05:45;26.00;97.70
34279;DHT22;20538;51.528;9.942;2023-08-21T10:08:15;26.30;97.30
34279;DHT22;20538;51.528;9.942;2023-08-21T10:10:42;26.00;97.20
34279;DHT22;20538;51.528;9.942;2023-08-21T10:13:09;26.00;97.70
34279;DHT22;20538;51.528;9.942;2023-08-21T10:15:37;26.20;97.10
34279;DHT22;20538;51.528;9.942;2023-08-21T10:18:23;26.50;97.40
34279;DHT22;20538;51.528;9.942;2023-08-21T10:20:52;26.10;98.00
34279;DHT22;20538;51.528;9.942;2023-08-21T10:23:29;26.60;97.50
34279;DHT22;20538;51.528;9.942;2023-08-21T10:25:59;26.40;97.10
34279;DHT22;20538;51.528;9.942;2023-08-21T10:28:40;26.00;97.00
34279;DHT22;20538;51.528;9.942;2023-08-21T10:31:31;26.30;97.10
34279;DHT22;20538;51.528;9.942;2023-08-21T10:33:59;26.50;96.70
34279;DHT22;20538;51.528;9.942;2023-08-21T10:39:23;26.10;97.70
34279;DHT22;20538;51.528;9.942;2023-08-21T10:42:04;26.70;98.80
34279;DHT22;20538;51.528;9.942;2023-08-21T10:44:36;26.80;96.60
34279;DHT22;20538;51.528;9.942;2023-08-21T10:49:46;27.00;95.10
34279;DHT22;20538;51.528;9.942;2023-08-21T10:52:13;26.70;94.80
34279;DHT22;20538;51.528;9.942;2023-08-21T10:54:46;27.10;94.60
34279;DHT22;20538;51.528;9.942;2023-08-21T10:57:12;27.00;94.90
34279;DHT22;20538;51.528;9.942;2023-08-21T10:59:38;27.10;94.60
34279;DHT22;20538;51.528;9.942;2023-08-21T11:02:04;26.90;94.30
34279;DHT22;20538;51.528;9.942;2023-08-21T11:04:39;27.10;93.40
34279;DHT22;20538;51.528;9.942;2023-08-21T11:07:05;27.00;94.70
34279;DHT22;20538;51.528;9.942;2023-08-21T11:09:31;26.80;94.40
34279;DHT22;20538;51.528;9.942;2023-08-21T11:11:57;27.00;94.70
34279;DHT22;20538;51.528;9.942;2023-08-21T11:14:26;26.50;94.60
34279;DHT22;20538;51.528;9.942;2023-08-21T11:16:51;27.00;95.60
34279;DHT22;20538;51.528;9.942;2023-08-21T11:19:17;27.10;94.60
34279;DHT22;20538;51.528;9.942;2023-08-21T11:21:42;26.60;94.50
34279;DHT22;20538;51.528;9.942;2023-08-21T11:24:08;26.50;94.50
34279;DHT22;20538;51.528;9.942;2023-08-21T11:26:34;26.80;94.30
34279;DHT22;20538;51.528;9.942;2023-08-21T11:28:59;26.90;94.10
34279;DHT22;20538;51.528;9.942;2023-08-21T11:31:28;27.00;93.40
34279;DHT22;20538;51.528;9.942;2023-08-21T11:33:53;27.00;93.80
34279;DHT22;20538;51.528;9.942;2023-08-21T11:36:19;27.00;93.60
34279;DHT22;20538;51.528;9.942;2023-08-21T11:38:58;26.90;93.10
34279;DHT22;20538;51.528;9.942;2023-08-21T11:41:25;26.70;93.50
34279;DHT22;20538;51.528;9.942;2023-08-21T11:43:51;26.90;94.80
34279;DHT22;20538;51.528;9.942;2023-08-21T11:46:17;26.90;93.90
34279;DHT22;20538;51.528;9.942;2023-08-21T11:48:44;27.00;93.40
34279;DHT22;20538;51.528;9.942;2023-08-21T11:51:13;27.10;93.40
34279;DHT22;20538;51.528;9.942;2023-08-21T11:53:40;27.40;93.20
34279;DHT22;20538;51.528;9.942;2023-08-21T11:56:11;27.10;93.80
34279;DHT22;20538;51.528;9.942;2023-08-21T11:58:41;27.10;93.50
34279;DHT22;20538;51.528;9.942;2023-08-21T12:01:06;27.00;93.40
34279;DHT22;20538;51.528;9.942;2023-08-21T12:03:37;26.80;94.10
34279;DHT22;20538;51.528;9.942;2023-08-21T12:06:11;27.10;94.30
34279;DHT22;20538;51.528;9.942;2023-08-21T12:08:38;26.70;93.90
34279;DHT22;20538;51.528;9.942;2023-08-21T12:11:04;26.60;94.40
34279;DHT22;20538;51.528;9.942;2023-08-21T12:13:30;26.70;93.90
34279;DHT22;20538;51.528;9.942;2023-08-21T12:15:56;26.90;93.80
34279;DHT22;20538;51.528;9.942;2023-08-21T12:18:22;27.00;94.00
34279;DHT22;20538;51.528;9.942;2023-08-21T12:20:48;27.30;94.40
34279;DHT22;20538;51.528;9.942;2023-08-21T12:23:14;27.40;94.00
34279;DHT22;20538;51.528;9.942;2023-08-21T12:25:39;27.20;93.40
34279;DHT22;20538;51.528;9.942;2023-08-21T12:28:06;26.90;93.90
34279;DHT22;20538;51.528;9.942;2023-08-21T12:30:31;27.40;93.90
34279;DHT22;20538;51.528;9.942;2023-08-21T12:32:57;27.50;93.30
34279;DHT22;20538;51.528;9.942;2023-08-21T12:35:22;27.30;93.10
34279;DHT22;20538;51.528;9.942;2023-08-21T12:37:48;27.50;93.10
34279;DHT22;20538;51.528;9.942;2023-08-21T12:40:14;27.60;93.00
34279;DHT22;20538;51.528;9.942;2023-08-21T12:42:39;27.80;92.50
34279;DHT22;20538;51.528;9.942;2023-08-21T12:45:05;28.00;92.80
34279;DHT22;20538;51.528;9.942;2023-08-21T12:47:31;27.80;92.40
34279;DHT22;20538;51.528;9.942;2023-08-21T12:49:57;27.90;92.10
34279;DHT22;20538;51.528;9.942;2023-08-21T12:52:22;28.30;91.50
34279;DHT22;20538;51.528;9.942;2023-08-21T12:54:48;28.20;92.10
34279;DHT22;20538;51.528;9.942;2023-08-21T12:57:13;27.80;91.80
34279;DHT22;20538;51.528;9.942;2023-08-21T12:59:39;28.00;92.10
34279;DHT22;20538;51.528;9.942;2023-08-21T13:02:05;27.80;91.80
34279;DHT22;20538;51.528;9.942;2023-08-21T13:04:30;27.70;92.40
34279;DHT22;20538;51.528;9.942;2023-08-21T13:06:56;28.00;91.90
34279;DHT22;20538;51.528;9.942;2023-08-21T13:09:23;28.30;91.70
34279;DHT22;20538;51.528;9.942;2023-08-21T13:11:51;28.20;91.40
34279;DHT22;20538;51.528;9.942;2023-08-21T13:14:17;27.90;91.40
34279;DHT22;20538;51.528;9.942;2023-08-21T13:16:42;28.30;91.50
34279;DHT22;20538;51.528;9.942;2023-08-21T13:19:08;28.80;91.50
34279;DHT22;20538;51.528;9.942;2023-08-21T13:21:34;28.30;91.10
34279;DHT22;20538;51.528;9.942;2023-08-21T13:23:59;28.50;90.50
34279;DHT22;20538;51.528;9.942;2023-08-21T13:26:25;28.40;91.20
34279;DHT22;20538;51.528;9.942;2023-08-21T13:28:53;28.50;90.30
34279;DHT22;20538;51.528;9.942;2023-08-21T13:31:18;28.00;90.60
34279;DHT22;20538;51.528;9.942;2023-08-21T13:33:48;28.40;90.00
34279;DHT22;20538;51.528;9.942;2023-08-21T13:36:15;28.50;90.20
34279;DHT22;20538;51.528;9.942;2023-08-21T13:38:41;28.30;90.30
34279;DHT22;20538;51.528;9.942;2023-08-21T13:41:07;28.40;90.60
34279;DHT22;20538;51.528;9.942;2023-08-21T13:43:33;28.30;90.60
34279;DHT22;20538;51.528;9.942;2023-08-21T13:46:02;28.20;90.00
34279;DHT22;20538;51.528;9.942;2023-08-21T13:48:31;28.40;89.30
34279;DHT22;20538;51.528;9.942;2023-08-21T13:50:58;28.20;88.80
34279;DHT22;20538;51.528;9.942;2023-08-21T13:53:23;28.20;89.90
34279;DHT22;20538;51.528;9.942;2023-08-21T13:55:52;28.10;88.30
34279;DHT22;20538;51.528;9.942;2023-08-21T13:58:18;28.40;89.50
34279;DHT22;20538;51.528;9.942;2023-08-21T14:00:43;28.60;88.70
34279;DHT22;20538;51.528;9.942;2023-08-21T14:03:13;28.50;89.00
34279;DHT22;20538;51.528;9.942;2023-08-21T14:05:39;28.50;86.90
34279;DHT22;20538;51.528;9.942;2023-08-21T14:08:05;28.20;88.80
34279;DHT22;20538;51.528;9.942;2023-08-21T14:10:30;28.00;88.00
34279;DHT22;20538;51.528;9.942;2023-08-21T14:12:56;28.00;89.40
34279;DHT22;20538;51.528;9.942;2023-08-21T14:15:25;27.90;89.30
34279;DHT22;20538;51.528;9.942;2023-08-21T14:17:50;28.10;88.80
34279;DHT22;20538;51.528;9.942;2023-08-21T14:20:16;27.90;90.00
34279;DHT22;20538;51.528;9.942;2023-08-21T14:22:42;27.90;90.20
34279;DHT22;20538;51.528;9.942;2023-08-21T14:25:08;28.20;90.10
34279;DHT22;20538;51.528;9.942;2023-08-21T14:27:34;28.10;90.10
34279;DHT22;20538;51.528;9.942;2023-08-21T14:30:00;28.10;89.70
34279;DHT22;20538;51.528;9.942;2023-08-21T14:32:25;28.20;90.20
34279;DHT22;20538;51.528;9.942;2023-08-21T14:34:52;28.00;88.80
34279;DHT22;20538;51.528;9.942;2023-08-21T14:37:20;28.00;90.50
34279;DHT22;20538;51.528;9.942;2023-08-21T14:39:46;28.30;88.50
34279;DHT22;20538;51.528;9.942;2023-08-21T14:42:13;28.70;88.30
34279;DHT22;20538;51.528;9.942;2023-08-21T14:44:38;28.70;87.70
34279;DHT22;20538;51.528;9.942;2023-08-21T14:47:04;28.60;86.90
34279;DHT22;20538;51.528;9.942;2023-08-21T14:49:30;28.60;87.90
34279;DHT22;20538;51.528;9.942;2023-08-21T14:51:56;28.40;86.90
34279;DHT22;20538;51.528;9.942;2023-08-21T14:54:22;28.20;87.30
34279;DHT22;20538;51.528;9.942;2023-08-21T14:56:47;28.30;87.90
34279;DHT22;20538;51.528;9.942;2023-08-21T14:59:13;27.90;87.50
34279;DHT22;20538;51.528;9.942;2023-08-21T15:01:40;28.30;87.70
34279;DHT22;20538;51.528;9.942;2023-08-21T15:04:06;28.40;88.10
34279;DHT22;20538;51.528;9.942;2023-08-21T15:06:33;28.30;87.80
34279;DHT22;20538;51.528;9.942;2023-08-21T15:08:59;28.40;87.40
34279;DHT22;20538;51.528;9.942;2023-08-21T15:11:25;28.00;87.80
34279;DHT22;20538;51.528;9.942;2023-08-21T15:13:50;27.80;88.80
34279;DHT22;20538;51.528;9.942;2023-08-21T15:16:16;27.60;89.30
34279;DHT22;20538;51.528;9.942;2023-08-21T15:18:41;27.80;89.00
34279;DHT22;20538;51.528;9.942;2023-08-21T15:21:07;27.80;89.20
34279;DHT22;20538;51.528;9.942;2023-08-21T15:23:33;27.50;90.20
34279;DHT22;20538;51.528;9.942;2023-08-21T15:25:58;27.50;90.00
34279;DHT22;20538;51.528;9.942;2023-08-21T15:28:24;27.70;88.60
34279;DHT22;20538;51.528;9.942;2023-08-21T15:30:49;27.50;89.30
34279;DHT22;20538;51.528;9.942;2023-08-21T15:33:15;27.50;89.00
34279;DHT22;20538;51.528;9.942;2023-08-21T15:35:40;27.70;89.10
34279;DHT22;20538;51.528;9.942;2023-08-21T15:38:06;27.80;89.40